Terminal Aerodrome Forecast
Issued by NWS

Home | Current Version | Previous Version | Text Only | Print | Product List | Glossary Off
Versions: 1 2 3 4 5 6 7 8 9 10 11 12 13 14 15 16

000
FTUS43 KBIS 250500
TAFJMS
TAF
KJMS 250537Z 2506/2606 25006KT P6SM BKN025 OVC045
      TEMPO 2506/2510 -SN BKN015 OVC025
     FM251400 19004KT P6SM BKN012 OVC025
     FM251800 13006KT 3SM -SN OVC024
     FM252100 13012KT 1SM -SN OVC009
      TEMPO 2523/2603 1/2SM SN OVC005
     FM260300 04016G22KT 2SM -SN OVC009=

USA.gov is the U.S. government's official web portal to all federal, state and local government web resources and services.